Time;durP1;ratioP1;P1;durP2;ratioP2;P2;SDS_P1;SDS_P2;PMS_P1;PMS_P2;Temp;Humidity;BMP_temperature;BMP_pressure;BME280_temperature;BME280_humidity;BME280_pressure;Samples;Min_cycle;Max_cycle;Signal;HPM_P1;HPM_P2
2022/07/18 00:01:38;;;;;;;14.52;7.93;;;;;;;;;;5069529;28;20309;-58
2022/07/18 00:04:04;;;;;;;16.50;8.48;;;;;;;;;;5055251;28;20248;-58
2022/07/18 00:06:30;;;;;;;17.10;8.57;;;;;;;;;;5073027;28;20185;-58
2022/07/18 00:08:56;;;;;;;12.05;8.60;;;;;;;;;;5070435;28;20181;-57
2022/07/18 00:11:23;;;;;;;14.32;8.32;;;;;;;;;;5054182;28;20198;-60
2022/07/18 00:13:52;;;;;;;17.75;9.10;;;;;;;;;;5070708;28;20183;-59
2022/07/18 00:16:18;;;;;;;13.57;8.85;;;;;;;;;;5052920;28;20664;-59
2022/07/18 00:18:45;;;;;;;13.75;8.93;;;;;;;;;;5052555;28;20293;-59
2022/07/18 00:21:11;;;;;;;12.27;8.45;;;;;;;;;;5056125;28;20253;-59
2022/07/18 00:23:38;;;;;;;14.63;8.63;;;;;;;;;;5066290;28;20612;-59
2022/07/18 00:26:04;;;;;;;15.07;8.05;;;;;;;;;;5070238;28;20187;-59
2022/07/18 00:28:30;;;;;;;12.38;8.02;;;;;;;;;;5053726;28;20537;-59
2022/07/18 00:30:56;;;;;;;13.18;8.25;;;;;;;;;;5059363;28;20237;-59
2022/07/18 00:33:23;;;;;;;14.25;8.43;;;;;;;;;;5052723;28;20585;-59
2022/07/18 00:35:49;;;;;;;12.50;8.10;;;;;;;;;;5069769;28;20195;-59
2022/07/18 00:38:15;;;;;;;12.57;8.40;;;;;;;;;;5068861;28;20178;-59
2022/07/18 00:40:42;;;;;;;18.20;8.20;;;;;;;;;;5065294;28;20206;-59
2022/07/18 00:43:08;;;;;;;12.18;8.15;;;;;;;;;;5035231;28;20183;-59
2022/07/18 00:45:35;;;;;;;12.60;8.30;;;;;;;;;;5048636;28;20556;-60
2022/07/18 00:48:05;;;;;;;11.65;7.50;;;;;;;;;;5041890;28;20235;-60
2022/07/18 00:50:32;;;;;;;17.17;8.60;;;;;;;;;;5023284;28;20200;-59
2022/07/18 00:52:58;;;;;;;14.73;8.20;;;;;;;;;;5030696;28;20187;-59
2022/07/18 00:55:24;;;;;;;13.48;8.23;;;;;;;;;;5030589;28;20661;-58
2022/07/18 00:57:50;;;;;;;14.70;9.10;;;;;;;;;;5031522;28;20184;-58
2022/07/18 01:03:02;;;;;;;15.88;9.32;;;;;;;;;;5011505;28;20562;-58
2022/07/18 01:05:29;;;;;;;13.85;8.73;;;;;;;;;;5029322;28;20180;-58
2022/07/18 01:07:55;;;;;;;12.60;8.20;;;;;;;;;;5032840;28;20170;-58
2022/07/18 01:10:21;;;;;;;14.90;9.25;;;;;;;;;;5024337;28;20203;-58
2022/07/18 01:12:48;;;;;;;15.35;8.40;;;;;;;;;;5015302;28;20187;-59
2022/07/18 01:15:14;;;;;;;14.13;8.70;;;;;;;;;;5025682;28;20195;-59
2022/07/18 01:17:40;;;;;;;16.70;8.73;;;;;;;;;;5029475;28;20665;-59
2022/07/18 01:20:06;;;;;;;13.50;8.38;;;;;;;;;;5022629;28;20295;-58
2022/07/18 01:22:33;;;;;;;15.88;8.65;;;;;;;;;;5014621;28;20276;-58
2022/07/18 01:25:00;;;;;;;14.40;8.85;;;;;;;;;;5015999;28;20188;-58
2022/07/18 01:27:26;;;;;;;11.35;8.73;;;;;;;;;;5031885;28;20187;-58
2022/07/18 01:29:53;;;;;;;14.27;8.32;;;;;;;;;;5034506;28;20664;-58
2022/07/18 01:32:20;;;;;;;14.60;8.07;;;;;;;;;;5027235;28;20249;-59
2022/07/18 01:34:47;;;;;;;15.45;8.68;;;;;;;;;;5030831;28;20275;-59
2022/07/18 01:37:13;;;;;;;12.50;7.90;;;;;;;;;;5032848;28;20236;-58
2022/07/18 01:39:40;;;;;;;13.23;7.80;;;;;;;;;;5034262;28;20653;-59
2022/07/18 01:42:07;;;;;;;14.65;8.45;;;;;;;;;;5022087;28;20565;-59
2022/07/18 01:44:34;;;;;;;13.77;8.07;;;;;;;;;;5022283;28;20179;-58
2022/07/18 01:47:01;;;;;;;14.63;8.07;;;;;;;;;;5033953;28;20176;-59
2022/07/18 01:49:28;;;;;;;13.50;8.60;;;;;;;;;;5067289;28;20227;-58
2022/07/18 01:51:55;;;;;;;14.75;8.35;;;;;;;;;;5042166;28;20248;-58
2022/07/18 01:54:22;;;;;;;14.45;8.15;;;;;;;;;;5044217;28;20200;-58
2022/07/18 01:56:48;;;;;;;14.80;8.10;;;;;;;;;;5075420;28;20182;-58
2022/07/18 01:59:14;;;;;;;12.80;8.30;;;;;;;;;;5074185;28;20175;-58
2022/07/18 02:01:40;;;;;;;12.40;8.18;;;;;;;;;;5052019;28;20214;-58
2022/07/18 02:04:07;;;;;;;17.40;8.38;;;;;;;;;;5039224;28;20182;-59
2022/07/18 02:06:33;;;;;;;12.55;8.27;;;;;;;;;;5038864;28;20704;-60
2022/07/18 02:08:59;;;;;;;13.60;8.23;;;;;;;;;;5044327;28;22583;-59
2022/07/18 02:11:25;;;;;;;13.20;8.48;;;;;;;;;;5074086;28;20192;-58
2022/07/18 02:13:51;;;;;;;13.32;8.23;;;;;;;;;;5072600;28;20631;-60
2022/07/18 02:16:17;;;;;;;11.85;8.02;;;;;;;;;;5062943;28;20652;-59
2022/07/18 02:18:44;;;;;;;13.73;8.25;;;;;;;;;;5066970;28;20179;-61
2022/07/18 02:21:10;;;;;;;12.38;7.97;;;;;;;;;;5049515;28;20304;-58
2022/07/18 02:23:37;;;;;;;13.35;8.18;;;;;;;;;;5056472;28;20182;-59
2022/07/18 02:26:04;;;;;;;14.95;8.75;;;;;;;;;;5057241;28;20636;-62
2022/07/18 02:28:30;;;;;;;13.45;7.95;;;;;;;;;;5056889;28;20222;-63
2022/07/18 02:30:56;;;;;;;13.55;7.90;;;;;;;;;;5058514;28;20265;-58
2022/07/18 02:33:22;;;;;;;13.88;8.70;;;;;;;;;;5054875;28;20183;-60
2022/07/18 02:35:48;;;;;;;12.90;8.23;;;;;;;;;;5056815;28;20587;-60
2022/07/18 02:38:14;;;;;;;14.82;8.82;;;;;;;;;;5042392;28;20529;-59
2022/07/18 02:40:40;;;;;;;14.68;8.38;;;;;;;;;;5045861;28;20241;-60
2022/07/18 02:43:07;;;;;;;13.68;8.52;;;;;;;;;;5074376;28;20186;-59
2022/07/18 02:45:33;;;;;;;22.92;8.85;;;;;;;;;;5073249;28;20186;-59
2022/07/18 02:47:59;;;;;;;18.05;8.30;;;;;;;;;;5070656;28;20258;-60
2022/07/18 02:50:25;;;;;;;14.43;7.82;;;;;;;;;;5067987;28;20194;-59
2022/07/18 02:52:51;;;;;;;16.88;8.48;;;;;;;;;;5070472;28;20190;-60
2022/07/18 02:55:18;;;;;;;16.15;8.13;;;;;;;;;;5066926;28;20191;-59
2022/07/18 02:57:44;;;;;;;14.75;8.05;;;;;;;;;;5056478;28;20249;-60
2022/07/18 03:00:11;;;;;;;14.52;8.50;;;;;;;;;;5057358;28;20672;-58
2022/07/18 03:02:37;;;;;;;14.05;8.05;;;;;;;;;;5036458;28;20641;-58
2022/07/18 03:05:04;;;;;;;18.48;8.40;;;;;;;;;;5052328;28;20197;-58
2022/07/18 03:07:30;;;;;;;13.25;7.95;;;;;;;;;;5059139;28;20183;-59
2022/07/18 03:09:56;;;;;;;14.75;7.90;;;;;;;;;;5042245;28;20536;-59
2022/07/18 03:12:23;;;;;;;12.52;8.35;;;;;;;;;;5054048;28;20179;-59
2022/07/18 03:14:49;;;;;;;17.40;8.85;;;;;;;;;;5068694;28;20185;-59
2022/07/18 03:17:15;;;;;;;14.23;8.50;;;;;;;;;;5056423;28;20269;-58
2022/07/18 03:19:41;;;;;;;14.05;8.50;;;;;;;;;;5070512;28;20178;-59
2022/07/18 03:22:08;;;;;;;17.77;8.75;;;;;;;;;;5072789;28;20179;-58
2022/07/18 03:24:34;;;;;;;13.43;8.77;;;;;;;;;;5071400;28;20206;-58
2022/07/18 03:27:00;;;;;;;12.70;8.40;;;;;;;;;;5060041;28;20244;-58
2022/07/18 03:29:26;;;;;;;18.83;9.45;;;;;;;;;;5037671;28;20210;-59
2022/07/18 03:31:52;;;;;;;13.95;9.00;;;;;;;;;;5059870;28;20189;-58
2022/07/18 03:34:19;;;;;;;15.40;8.25;;;;;;;;;;5051619;28;20260;-58
2022/07/18 03:36:46;;;;;;;13.60;8.57;;;;;;;;;;5073173;28;20179;-58
2022/07/18 03:39:12;;;;;;;13.20;8.38;;;;;;;;;;5071972;28;20174;-58
2022/07/18 03:41:39;;;;;;;12.93;8.50;;;;;;;;;;5047555;28;20217;-58
2022/07/18 03:44:06;;;;;;;16.15;8.45;;;;;;;;;;5066636;28;20816;-59
2022/07/18 03:46:33;;;;;;;17.45;8.55;;;;;;;;;;5052874;28;20657;-58
2022/07/18 03:49:00;;;;;;;14.68;8.18;;;;;;;;;;5071235;28;20393;-58
2022/07/18 03:51:26;;;;;;;13.55;8.15;;;;;;;;;;5073143;28;20178;-59
2022/07/18 03:53:53;;;;;;;14.13;8.02;;;;;;;;;;5056489;28;20178;-58
2022/07/18 03:56:19;;;;;;;14.02;7.75;;;;;;;;;;5054029;28;20648;-58
2022/07/18 03:58:45;;;;;;;13.52;7.95;;;;;;;;;;5070518;28;20578;-59
2022/07/18 04:01:12;;;;;;;16.08;7.70;;;;;;;;;;5054440;28;20221;-59
2022/07/18 04:03:38;;;;;;;12.48;7.43;;;;;;;;;;5062817;28;20700;-60
2022/07/18 04:06:04;;;;;;;15.10;8.60;;;;;;;;;;5072335;28;20281;-60
2022/07/18 04:08:31;;;;;;;15.30;8.10;;;;;;;;;;5065486;28;20226;-60
2022/07/18 04:10:57;;;;;;;12.00;7.63;;;;;;;;;;5070547;28;20191;-58
2022/07/18 04:13:23;;;;;;;12.52;7.05;;;;;;;;;;5069889;28;20179;-58
2022/07/18 04:15:49;;;;;;;12.52;7.47;;;;;;;;;;5070278;28;20186;-59
2022/07/18 04:18:15;;;;;;;11.70;7.28;;;;;;;;;;5052782;28;20167;-59
2022/07/18 04:20:41;;;;;;;13.68;7.93;;;;;;;;;;5068818;28;20206;-59
2022/07/18 04:23:09;;;;;;;15.02;7.68;;;;;;;;;;5061015;28;20656;-59
2022/07/18 04:25:37;;;;;;;13.07;7.80;;;;;;;;;;5071258;28;20217;-59
2022/07/18 04:28:03;;;;;;;16.33;7.50;;;;;;;;;;5054772;28;20175;-59
2022/07/18 04:30:30;;;;;;;13.07;7.10;;;;;;;;;;5041722;28;20201;-59
2022/07/18 04:32:56;;;;;;;12.68;7.85;;;;;;;;;;5052785;28;20182;-59
2022/07/18 04:35:23;;;;;;;15.20;7.47;;;;;;;;;;5071168;28;20682;-59
2022/07/18 04:37:50;;;;;;;11.90;7.65;;;;;;;;;;5054225;28;20174;-59
2022/07/18 04:40:16;;;;;;;14.45;7.72;;;;;;;;;;5063220;28;20294;-59
2022/07/18 04:42:43;;;;;;;14.48;7.53;;;;;;;;;;5054113;28;20191;-59
2022/07/18 04:45:09;;;;;;;15.40;7.35;;;;;;;;;;5061076;28;20172;-59
2022/07/18 04:47:35;;;;;;;14.48;7.88;;;;;;;;;;5057208;28;20205;-59
2022/07/18 04:50:01;;;;;;;16.77;7.53;;;;;;;;;;5075030;28;20304;-58
2022/07/18 04:52:28;;;;;;;14.02;7.38;;;;;;;;;;5045724;28;20195;-59
2022/07/18 04:54:54;;;;;;;13.93;7.63;;;;;;;;;;5073134;28;20237;-60
2022/07/18 04:57:20;;;;;;;12.40;7.57;;;;;;;;;;5057357;28;20554;-60
2022/07/18 04:59:47;;;;;;;12.48;7.35;;;;;;;;;;5075438;28;20232;-59
2022/07/18 05:02:14;;;;;;;15.15;7.90;;;;;;;;;;5066717;28;20182;-59
2022/07/18 05:04:40;;;;;;;12.90;7.72;;;;;;;;;;5075190;28;20190;-60
2022/07/18 05:07:06;;;;;;;13.57;7.22;;;;;;;;;;5057860;28;20191;-59
2022/07/18 05:09:33;;;;;;;18.27;7.85;;;;;;;;;;5074953;28;20648;-60
2022/07/18 05:11:59;;;;;;;17.35;7.75;;;;;;;;;;5073209;28;20182;-60
2022/07/18 05:14:25;;;;;;;15.80;7.80;;;;;;;;;;5052731;28;20182;-60
2022/07/18 05:16:51;;;;;;;16.67;7.20;;;;;;;;;;5075124;28;20190;-60
2022/07/18 05:19:17;;;;;;;13.43;6.75;;;;;;;;;;5038342;28;20325;-60
2022/07/18 05:21:44;;;;;;;12.00;6.95;;;;;;;;;;5055747;28;20302;-59
2022/07/18 05:24:10;;;;;;;13.90;6.82;;;;;;;;;;5070430;28;20251;-59
2022/07/18 05:26:36;;;;;;;12.88;7.05;;;;;;;;;;5074949;28;20636;-59
2022/07/18 05:29:03;;;;;;;18.98;7.57;;;;;;;;;;5046147;28;20654;-59
2022/07/18 05:31:30;;;;;;;18.98;6.65;;;;;;;;;;5056018;28;20191;-59
2022/07/18 05:33:56;;;;;;;26.27;7.47;;;;;;;;;;5036928;28;20261;-59
2022/07/18 05:36:22;;;;;;;25.95;7.43;;;;;;;;;;5057245;28;20197;-59
2022/07/18 05:38:48;;;;;;;26.63;7.00;;;;;;;;;;5055269;28;20222;-59
2022/07/18 05:41:15;;;;;;;15.60;6.70;;;;;;;;;;5061116;28;20687;-59
2022/07/18 05:43:41;;;;;;;16.55;7.65;;;;;;;;;;5055976;28;20281;-59
2022/07/18 05:46:07;;;;;;;17.95;6.05;;;;;;;;;;5075129;28;20266;-60
2022/07/18 05:48:33;;;;;;;16.05;6.20;;;;;;;;;;5074006;28;20223;-60
2022/07/18 05:50:59;;;;;;;15.80;6.10;;;;;;;;;;5039886;28;20241;-60
2022/07/18 05:53:26;;;;;;;12.77;6.75;;;;;;;;;;5057964;28;20240;-60
2022/07/18 05:55:52;;;;;;;11.75;6.00;;;;;;;;;;5071643;28;20179;-60
2022/07/18 05:58:18;;;;;;;13.57;5.75;;;;;;;;;;5075428;28;20204;-59
2022/07/18 06:00:44;;;;;;;15.30;6.30;;;;;;;;;;5041682;28;20207;-59
2022/07/18 06:03:11;;;;;;;11.70;6.50;;;;;;;;;;5062564;28;20190;-59
2022/07/18 06:05:38;;;;;;;13.85;5.93;;;;;;;;;;5073405;28;20210;-59
2022/07/18 06:08:05;;;;;;;16.30;6.05;;;;;;;;;;5074779;28;20199;-59
2022/07/18 06:10:31;;;;;;;14.13;6.50;;;;;;;;;;5074293;28;20214;-59
2022/07/18 06:12:58;;;;;;;18.65;6.22;;;;;;;;;;5040960;28;20191;-59
2022/07/18 06:15:24;;;;;;;28.42;6.45;;;;;;;;;;5068066;28;20193;-59
2022/07/18 06:17:51;;;;;;;29.70;6.35;;;;;;;;;;5057140;28;20603;-59
2022/07/18 06:20:17;;;;;;;17.38;6.35;;;;;;;;;;5055300;28;20211;-59
2022/07/18 06:22:43;;;;;;;14.32;5.93;;;;;;;;;;5064086;28;20265;-59
2022/07/18 06:25:11;;;;;;;11.23;6.10;;;;;;;;;;5073246;28;20190;-59
2022/07/18 06:27:37;;;;;;;16.55;6.20;;;;;;;;;;5074224;28;20667;-59
2022/07/18 06:30:04;;;;;;;11.38;6.20;;;;;;;;;;5071967;28;20277;-60
2022/07/18 06:32:31;;;;;;;14.82;5.75;;;;;;;;;;5060577;28;20183;-58
2022/07/18 06:34:57;;;;;;;11.18;6.05;;;;;;;;;;5063680;28;20209;-58
2022/07/18 06:37:23;;;;;;;11.80;5.82;;;;;;;;;;5066693;28;20229;-58
2022/07/18 06:39:49;;;;;;;17.13;6.22;;;;;;;;;;5064750;28;20175;-58
2022/07/18 06:42:15;;;;;;;15.25;5.85;;;;;;;;;;5066127;28;20191;-60
2022/07/18 06:44:41;;;;;;;14.52;6.00;;;;;;;;;;5066569;28;20186;-58
2022/07/18 06:47:07;;;;;;;11.40;6.20;;;;;;;;;;5073037;28;20187;-59
2022/07/18 06:49:36;;;;;;;12.77;6.32;;;;;;;;;;5069033;28;20226;-59
2022/07/18 06:52:03;;;;;;;11.80;5.68;;;;;;;;;;5053132;28;20210;-59
2022/07/18 06:54:29;;;;;;;20.25;7.72;;;;;;;;;;5048075;28;20277;-59
2022/07/18 06:56:56;;;;;;;13.70;6.07;;;;;;;;;;5060231;28;20186;-59
2022/07/18 06:59:23;;;;;;;15.77;6.53;;;;;;;;;;5061344;28;20186;-58
2022/07/18 07:01:49;;;;;;;18.63;6.25;;;;;;;;;;5061421;28;20210;-59
2022/07/18 07:04:16;;;;;;;13.52;5.78;;;;;;;;;;5071074;28;20261;-59
2022/07/18 07:06:42;;;;;;;15.93;5.75;;;;;;;;;;5068303;28;20255;-59
2022/07/18 07:09:08;;;;;;;14.13;5.90;;;;;;;;;;5065914;28;20186;-59
2022/07/18 07:11:34;;;;;;;14.98;5.60;;;;;;;;;;5067176;28;20195;-58
2022/07/18 07:14:00;;;;;;;11.25;5.85;;;;;;;;;;5061659;28;20218;-59
2022/07/18 07:16:27;;;;;;;12.88;5.60;;;;;;;;;;5060601;28;20701;-60
2022/07/18 07:18:53;;;;;;;12.65;5.57;;;;;;;;;;5059333;28;20182;-59
2022/07/18 07:21:19;;;;;;;16.05;5.35;;;;;;;;;;5053872;28;20264;-60
2022/07/18 07:23:45;;;;;;;12.18;5.30;;;;;;;;;;5063753;28;20252;-59
2022/07/18 07:26:11;;;;;;;12.65;5.80;;;;;;;;;;5071885;28;20178;-59
2022/07/18 07:28:38;;;;;;;18.38;5.45;;;;;;;;;;5065747;28;20182;-59
2022/07/18 07:31:05;;;;;;;34.22;6.20;;;;;;;;;;5070460;28;20191;-60
2022/07/18 07:33:31;;;;;;;12.30;6.10;;;;;;;;;;5056881;28;20198;-59
2022/07/18 07:35:57;;;;;;;18.80;6.10;;;;;;;;;;5066440;28;20179;-60
2022/07/18 07:38:27;;;;;;;15.07;6.00;;;;;;;;;;5040438;28;20187;-59
2022/07/18 07:40:54;;;;;;;14.48;5.65;;;;;;;;;;5068122;28;20566;-59
2022/07/18 07:43:20;;;;;;;16.75;6.00;;;;;;;;;;5052539;28;20202;-59
2022/07/18 07:45:48;;;;;;;21.95;5.70;;;;;;;;;;5068306;28;20190;-59
2022/07/18 07:48:15;;;;;;;14.82;5.57;;;;;;;;;;5072878;28;20222;-59
2022/07/18 07:50:41;;;;;;;13.95;5.47;;;;;;;;;;5065580;28;20193;-59
2022/07/18 07:53:07;;;;;;;16.95;5.43;;;;;;;;;;5053122;28;20178;-60
2022/07/18 07:55:33;;;;;;;12.30;5.03;;;;;;;;;;5055596;28;20176;-60
2022/07/18 07:58:01;;;;;;;10.90;4.85;;;;;;;;;;5037227;28;20198;-60
2022/07/18 08:00:28;;;;;;;12.73;4.88;;;;;;;;;;5066039;28;20206;-60
2022/07/18 08:02:55;;;;;;;10.00;4.57;;;;;;;;;;5052985;28;20526;-60
2022/07/18 08:05:21;;;;;;;10.45;4.53;;;;;;;;;;5060008;28;20175;-60
2022/07/18 08:07:47;;;;;;;11.43;4.43;;;;;;;;;;5047035;28;20188;-59
2022/07/18 08:10:14;;;;;;;17.30;4.53;;;;;;;;;;5062684;28;20206;-59
2022/07/18 08:12:40;;;;;;;12.20;4.75;;;;;;;;;;5069509;28;20185;-60
2022/07/18 08:15:06;;;;;;;10.07;4.60;;;;;;;;;;5060836;28;20197;-60
2022/07/18 08:17:33;;;;;;;9.68;4.40;;;;;;;;;;5065458;28;20192;-60
2022/07/18 08:19:59;;;;;;;16.23;4.90;;;;;;;;;;5061604;28;20222;-60
2022/07/18 08:22:25;;;;;;;10.40;4.40;;;;;;;;;;5069996;28;20194;-60
2022/07/18 08:24:51;;;;;;;12.35;4.72;;;;;;;;;;5062550;28;20187;-59
2022/07/18 08:27:17;;;;;;;11.80;4.63;;;;;;;;;;5071296;28;20182;-57
2022/07/18 08:29:44;;;;;;;14.75;4.40;;;;;;;;;;5064436;28;20676;-58
2022/07/18 08:32:10;;;;;;;12.43;4.22;;;;;;;;;;5034514;28;20274;-58
2022/07/18 08:34:36;;;;;;;10.48;4.65;;;;;;;;;;5068036;28;20197;-58
2022/07/18 08:37:02;;;;;;;13.35;4.18;;;;;;;;;;5054933;28;20186;-59
2022/07/18 08:39:28;;;;;;;10.70;4.45;;;;;;;;;;5069824;28;20220;-58
2022/07/18 08:41:55;;;;;;;13.00;4.10;;;;;;;;;;5041774;28;20583;-59
2022/07/18 08:44:21;;;;;;;14.55;4.40;;;;;;;;;;5062912;28;20187;-58
2022/07/18 08:46:53;;;;;;;8.60;3.83;;;;;;;;;;5072374;28;20189;-59
2022/07/18 08:49:21;;;;;;;11.25;5.00;;;;;;;;;;5069191;28;20287;-59
2022/07/18 08:51:47;;;;;;;10.02;4.28;;;;;;;;;;5072520;28;20179;-58
2022/07/18 08:54:14;;;;;;;12.48;4.38;;;;;;;;;;5067179;28;20182;-59
2022/07/18 08:56:41;;;;;;;9.20;4.13;;;;;;;;;;5072113;28;20232;-58
2022/07/18 08:59:07;;;;;;;10.40;4.13;;;;;;;;;;5070470;28;20194;-58
2022/07/18 09:01:33;;;;;;;8.43;3.72;;;;;;;;;;5054343;28;20218;-59
2022/07/18 09:04:17;;;;;;;13.10;4.43;;;;;;;;;;5068773;28;20186;-59
2022/07/18 09:06:50;;;;;;;13.85;3.92;;;;;;;;;;5057436;28;20179;-61
2022/07/18 09:09:17;;;;;;;14.27;3.90;;;;;;;;;;5066037;28;20261;-59
2022/07/18 09:11:50;;;;;;;11.68;4.03;;;;;;;;;;5044815;28;20187;-59
2022/07/18 09:14:30;;;;;;;8.60;4.22;;;;;;;;;;5056187;28;20198;-59
2022/07/18 09:17:07;;;;;;;11.95;3.88;;;;;;;;;;5039184;28;20187;-59
2022/07/18 09:19:33;;;;;;;11.65;3.60;;;;;;;;;;5058591;28;20178;-59
2022/07/18 09:22:12;;;;;;;9.25;3.40;;;;;;;;;;5065838;28;20253;-59
2022/07/18 09:24:57;;;;;;;13.02;4.10;;;;;;;;;;5044522;28;20182;-59
2022/07/18 09:27:34;;;;;;;11.55;3.50;;;;;;;;;;5041926;28;20191;-58
2022/07/18 09:30:12;;;;;;;14.85;4.10;;;;;;;;;;5044860;28;20261;-59
2022/07/18 09:32:39;;;;;;;7.03;3.03;;;;;;;;;;5066665;28;20190;-59
2022/07/18 09:35:09;;;;;;;7.68;3.25;;;;;;;;;;5059842;28;20187;-55
2022/07/18 09:37:36;;;;;;;8.65;2.80;;;;;;;;;;5056222;28;20198;-59
2022/07/18 09:40:19;;;;;;;10.38;3.35;;;;;;;;;;5063540;28;20207;-58
2022/07/18 09:42:50;;;;;;;7.75;3.30;;;;;;;;;;5043839;28;20187;-58
2022/07/18 09:45:16;;;;;;;7.28;3.10;;;;;;;;;;5067068;28;20193;-58
2022/07/18 09:47:53;;;;;;;9.82;2.42;;;;;;;;;;5071565;28;20232;-58
2022/07/18 09:50:20;;;;;;;7.22;2.60;;;;;;;;;;5065982;28;20182;-58
2022/07/18 09:52:55;;;;;;;7.65;2.78;;;;;;;;;;5055474;28;20620;-58
2022/07/18 09:55:22;;;;;;;6.20;2.80;;;;;;;;;;5071071;28;20661;-59
2022/07/18 09:58:03;;;;;;;7.97;2.90;;;;;;;;;;5055677;28;20194;-58
2022/07/18 10:00:30;;;;;;;6.93;2.75;;;;;;;;;;5061572;28;20224;-59
2022/07/18 10:02:58;;;;;;;5.55;2.53;;;;;;;;;;5067218;28;20186;-58
2022/07/18 10:05:29;;;;;;;6.72;2.38;;;;;;;;;;5067615;28;20662;-58
2022/07/18 10:07:55;;;;;;;4.32;2.30;;;;;;;;;;5051442;28;20186;-59
2022/07/18 10:10:24;;;;;;;4.82;2.40;;;;;;;;;;5072651;28;20186;-58
2022/07/18 10:12:52;;;;;;;4.00;2.17;;;;;;;;;;5055382;28;20318;-57
2022/07/18 10:15:18;;;;;;;9.18;2.60;;;;;;;;;;5051162;28;20215;-58
2022/07/18 10:17:45;;;;;;;9.23;2.42;;;;;;;;;;5059288;28;20178;-58
2022/07/18 10:20:11;;;;;;;7.60;2.20;;;;;;;;;;5067886;28;20241;-58
2022/07/18 10:22:43;;;;;;;7.90;2.72;;;;;;;;;;5069852;28;20199;-57
2022/07/18 10:25:11;;;;;;;4.82;2.20;;;;;;;;;;5064747;28;20167;-57
2022/07/18 10:27:50;;;;;;;8.15;2.47;;;;;;;;;;5055350;28;20190;-58
2022/07/18 10:30:19;;;;;;;6.57;2.30;;;;;;;;;;5053803;28;20201;-57
2022/07/18 10:32:45;;;;;;;8.07;2.80;;;;;;;;;;5069254;28;20591;-57
2022/07/18 10:35:15;;;;;;;10.60;2.88;;;;;;;;;;5070636;28;20239;-57
2022/07/18 10:37:41;;;;;;;5.38;2.65;;;;;;;;;;5054080;28;20214;-57
2022/07/18 10:40:27;;;;;;;9.10;2.80;;;;;;;;;;5044539;28;20218;-57
2022/07/18 10:43:12;;;;;;;6.25;2.67;;;;;;;;;;5058832;28;20186;-58
2022/07/18 10:45:45;;;;;;;5.18;2.65;;;;;;;;;;5071640;28;20189;-58
2022/07/18 10:48:32;;;;;;;8.25;2.83;;;;;;;;;;5063470;28;20229;-57
2022/07/18 10:51:00;;;;;;;7.28;2.70;;;;;;;;;;5065898;28;20186;-59
2022/07/18 10:53:47;;;;;;;8.43;2.72;;;;;;;;;;5053466;28;20202;-58
2022/07/18 10:56:13;;;;;;;3.95;2.45;;;;;;;;;;5072054;28;20247;-58
2022/07/18 10:58:40;;;;;;;7.72;2.70;;;;;;;;;;5055360;28;20183;-57
2022/07/18 11:01:10;;;;;;;5.00;2.88;;;;;;;;;;5051441;28;20222;-57
2022/07/18 11:03:36;;;;;;;6.35;3.00;;;;;;;;;;5065480;28;20244;-57
2022/07/18 11:06:02;;;;;;;11.85;2.67;;;;;;;;;;5066132;28;20216;-57
2022/07/18 11:08:31;;;;;;;5.82;2.92;;;;;;;;;;5040875;28;20187;-58
2022/07/18 11:11:03;;;;;;;6.80;2.53;;;;;;;;;;5067812;28;20239;-56
2022/07/18 11:13:31;;;;;;;6.20;2.65;;;;;;;;;;5059023;28;20539;-57
2022/07/18 11:16:07;;;;;;;9.90;2.67;;;;;;;;;;5053669;28;20184;-57
2022/07/18 11:18:34;;;;;;;5.72;3.03;;;;;;;;;;5057436;28;20178;-59
2022/07/18 11:21:00;;;;;;;6.70;2.78;;;;;;;;;;5056031;28;20246;-58
2022/07/18 11:23:28;;;;;;;5.63;2.30;;;;;;;;;;5066767;28;20240;-58
2022/07/18 11:25:56;;;;;;;6.03;2.67;;;;;;;;;;5070907;28;20182;-58
2022/07/18 11:28:23;;;;;;;9.93;3.00;;;;;;;;;;5041948;28;20183;-58
2022/07/18 11:31:02;;;;;;;9.15;2.83;;;;;;;;;;5057078;28;20190;-58
2022/07/18 11:33:29;;;;;;;8.13;2.60;;;;;;;;;;5052685;28;20190;-58
2022/07/18 11:36:24;;;;;;;6.10;2.88;;;;;;;;;;5056182;28;20693;-58
2022/07/18 11:38:52;;;;;;;17.55;4.80;;;;;;;;;;5022492;28;20193;-57
2022/07/18 11:41:20;;;;;;;8.13;3.17;;;;;;;;;;5051609;28;20705;-59
2022/07/18 11:43:47;;;;;;;5.28;2.95;;;;;;;;;;5039208;28;20187;-59
2022/07/18 11:46:14;;;;;;;5.78;3.00;;;;;;;;;;5053429;28;20183;-58
2022/07/18 11:48:41;;;;;;;5.00;2.78;;;;;;;;;;5067798;28;20780;-58
2022/07/18 11:51:10;;;;;;;5.78;2.90;;;;;;;;;;5047197;28;20236;-57
2022/07/18 11:53:38;;;;;;;7.10;3.10;;;;;;;;;;5052062;28;20183;-57
2022/07/18 11:56:05;;;;;;;8.02;3.13;;;;;;;;;;5070546;28;20247;-58
2022/07/18 11:58:36;;;;;;;5.65;2.75;;;;;;;;;;5071204;28;20174;-58
2022/07/18 12:01:03;;;;;;;4.97;2.70;;;;;;;;;;5060237;28;20210;-56
2022/07/18 12:03:31;;;;;;;8.10;3.28;;;;;;;;;;5035129;28;20652;-58
2022/07/18 12:05:57;;;;;;;9.30;3.95;;;;;;;;;;5070327;28;20185;-58
2022/07/18 12:08:28;;;;;;;5.88;2.92;;;;;;;;;;5052427;28;20182;-58
2022/07/18 12:11:08;;;;;;;5.38;3.00;;;;;;;;;;5058847;28;20274;-59
2022/07/18 12:13:41;;;;;;;4.63;3.30;;;;;;;;;;5061469;28;20202;-58
2022/07/18 12:16:07;;;;;;;4.30;2.65;;;;;;;;;;5063737;28;20197;-59
2022/07/18 12:18:33;;;;;;;4.78;2.95;;;;;;;;;;5056654;28;20184;-59
2022/07/18 12:21:09;;;;;;;11.85;3.10;;;;;;;;;;5069436;28;20214;-59
2022/07/18 12:23:35;;;;;;;15.82;2.97;;;;;;;;;;5070406;28;20190;-58
2022/07/18 12:26:02;;;;;;;6.97;2.83;;;;;;;;;;5036746;28;20636;-59
2022/07/18 12:28:28;;;;;;;13.57;2.80;;;;;;;;;;5039589;28;20178;-58
2022/07/18 12:30:55;;;;;;;8.07;2.70;;;;;;;;;;5051012;28;20607;-57
2022/07/18 12:33:22;;;;;;;6.60;2.53;;;;;;;;;;5070089;28;20267;-57
2022/07/18 12:35:58;;;;;;;5.95;2.50;;;;;;;;;;5055598;28;20217;-58
2022/07/18 12:38:24;;;;;;;9.65;2.88;;;;;;;;;;5058539;28;20558;-58
2022/07/18 12:40:58;;;;;;;7.35;2.90;;;;;;;;;;5054284;28;20217;-59
2022/07/18 12:43:31;;;;;;;5.15;2.60;;;;;;;;;;5037713;28;20598;-58
2022/07/18 12:45:57;;;;;;;5.43;2.53;;;;;;;;;;5066461;28;20273;-58
2022/07/18 12:48:24;;;;;;;7.18;2.83;;;;;;;;;;5067451;28;20174;-58
2022/07/18 12:50:58;;;;;;;5.43;2.50;;;;;;;;;;5070220;28;20182;-58
2022/07/18 12:53:24;;;;;;;4.78;2.42;;;;;;;;;;5063767;28;20182;-59
2022/07/18 12:55:50;;;;;;;7.53;2.70;;;;;;;;;;5055270;28;20190;-59
2022/07/18 12:58:17;;;;;;;8.65;2.70;;;;;;;;;;5053015;28;20190;-59
2022/07/18 13:00:44;;;;;;;10.75;2.85;;;;;;;;;;5068950;28;20214;-59
2022/07/18 13:03:10;;;;;;;8.27;2.97;;;;;;;;;;5071749;28;20200;-58
2022/07/18 13:05:36;;;;;;;7.65;3.10;;;;;;;;;;5062406;28;20669;-58
2022/07/18 13:08:03;;;;;;;9.55;2.75;;;;;;;;;;5050127;28;20185;-58
2022/07/18 13:10:29;;;;;;;8.65;2.72;;;;;;;;;;5071382;28;20186;-59
2022/07/18 13:12:55;;;;;;;5.32;2.63;;;;;;;;;;5075110;28;20186;-59
2022/07/18 13:15:22;;;;;;;9.10;2.67;;;;;;;;;;5073088;28;20486;-58
2022/07/18 13:17:49;;;;;;;4.60;2.58;;;;;;;;;;5064410;28;20178;-58
2022/07/18 13:20:16;;;;;;;13.75;2.63;;;;;;;;;;5054587;28;20204;-57
2022/07/18 13:22:42;;;;;;;6.13;2.70;;;;;;;;;;5066104;28;20189;-59
2022/07/18 13:25:09;;;;;;;6.78;3.05;;;;;;;;;;5068059;28;20182;-59
2022/07/18 13:27:36;;;;;;;9.00;2.92;;;;;;;;;;5064204;28;20181;-59
2022/07/18 13:30:02;;;;;;;12.18;2.92;;;;;;;;;;5050685;28;20178;-58
2022/07/18 13:32:29;;;;;;;10.52;2.78;;;;;;;;;;5066982;28;20178;-59
2022/07/18 13:34:56;;;;;;;7.82;2.90;;;;;;;;;;5071468;28;20186;-58
2022/07/18 13:37:22;;;;;;;7.13;3.10;;;;;;;;;;5056637;28;20235;-58
2022/07/18 13:39:48;;;;;;;8.63;3.70;;;;;;;;;;5050282;28;20178;-58
2022/07/18 13:42:14;;;;;;;9.38;3.28;;;;;;;;;;5042250;28;20226;-58
2022/07/18 13:44:41;;;;;;;13.10;3.08;;;;;;;;;;5069127;28;20178;-57
2022/07/18 13:47:07;;;;;;;5.47;2.70;;;;;;;;;;5065431;28;20185;-58
2022/07/18 13:49:33;;;;;;;5.18;3.00;;;;;;;;;;5064443;28;20226;-59
2022/07/18 13:51:59;;;;;;;4.68;2.83;;;;;;;;;;5043798;28;20218;-57
2022/07/18 13:54:26;;;;;;;6.80;3.10;;;;;;;;;;5068739;28;20170;-58
2022/07/18 13:56:52;;;;;;;5.75;3.20;;;;;;;;;;5066187;28;20213;-57
2022/07/18 13:59:18;;;;;;;10.43;2.88;;;;;;;;;;5053802;28;20663;-59
2022/07/18 14:01:44;;;;;;;10.00;3.17;;;;;;;;;;5055929;28;20242;-58
2022/07/18 14:04:10;;;;;;;12.80;3.45;;;;;;;;;;5067940;28;20220;-59
2022/07/18 14:06:36;;;;;;;10.27;3.20;;;;;;;;;;5059927;28;20190;-59
2022/07/18 14:09:06;;;;;;;7.70;2.88;;;;;;;;;;5070118;28;20177;-60
2022/07/18 14:11:32;;;;;;;7.22;2.90;;;;;;;;;;5066323;28;20190;-59
2022/07/18 14:13:59;;;;;;;7.05;2.83;;;;;;;;;;5069657;28;20178;-58
2022/07/18 14:16:25;;;;;;;5.68;2.70;;;;;;;;;;5070272;28;20182;-57
2022/07/18 14:18:51;;;;;;;7.90;3.20;;;;;;;;;;5064544;28;20205;-60
2022/07/18 14:21:17;;;;;;;6.93;2.90;;;;;;;;;;5063634;28;20257;-59
2022/07/18 14:23:43;;;;;;;8.73;3.08;;;;;;;;;;5062512;28;20274;-58
2022/07/18 14:26:09;;;;;;;5.53;2.88;;;;;;;;;;5038975;28;20183;-58
2022/07/18 14:28:36;;;;;;;8.23;3.15;;;;;;;;;;5054130;28;20202;-59
2022/07/18 14:31:02;;;;;;;6.95;2.92;;;;;;;;;;5068127;28;20225;-59
2022/07/18 14:33:28;;;;;;;5.38;2.80;;;;;;;;;;5072489;28;20241;-59
2022/07/18 14:35:54;;;;;;;8.13;2.75;;;;;;;;;;5040560;28;20187;-59
2022/07/18 14:38:20;;;;;;;7.90;3.10;;;;;;;;;;5053689;28;20214;-59